Time;durP1;ratioP1;P1;durP2;ratioP2;P2;SDS_P1;SDS_P2;PMS_P1;PMS_P2;Temp;Humidity;BMP_temperature;BMP_pressure;BME280_temperature;BME280_humidity;BME280_pressure;Samples;Min_cycle;Max_cycle;Signal;HPM_P1;HPM_P2
2022/07/08 00:01:31;;;;;;;4.13;3.03;;;;;;;;;;5070858;28;20025;-87
2022/07/08 00:03:56;;;;;;;3.58;3.28;;;;;;;;;;5070874;28;20055;-86
2022/07/08 00:06:22;;;;;;;3.65;3.28;;;;;;;;;;5071731;28;20020;-84
2022/07/08 00:08:47;;;;;;;3.20;2.90;;;;;;;;;;5067997;28;20025;-84
2022/07/08 00:11:12;;;;;;;4.60;3.40;;;;;;;;;;5070189;28;20029;-84
2022/07/08 00:13:38;;;;;;;4.45;2.85;;;;;;;;;;5069378;28;20025;-84
2022/07/08 00:16:04;;;;;;;3.15;2.85;;;;;;;;;;5070699;28;20047;-85
2022/07/08 00:18:29;;;;;;;3.35;3.05;;;;;;;;;;5071479;28;20055;-85
2022/07/08 00:20:55;;;;;;;3.10;2.80;;;;;;;;;;5070582;28;20108;-86
2022/07/08 00:23:20;;;;;;;3.00;2.70;;;;;;;;;;5071590;28;20062;-85
2022/07/08 00:25:45;;;;;;;2.78;2.42;;;;;;;;;;5071922;28;20027;-85
2022/07/08 00:28:11;;;;;;;4.13;2.90;;;;;;;;;;5069446;28;20029;-87
2022/07/08 00:30:37;;;;;;;3.03;2.50;;;;;;;;;;5067852;28;20039;-86
2022/07/08 00:33:02;;;;;;;2.90;2.60;;;;;;;;;;5070409;28;20388;-85
2022/07/08 00:35:28;;;;;;;3.22;2.65;;;;;;;;;;5071628;28;20028;-84
2022/07/08 00:37:54;;;;;;;3.58;2.80;;;;;;;;;;5070567;28;20031;-85
2022/07/08 00:40:20;;;;;;;3.45;2.80;;;;;;;;;;5068351;28;20035;-84
2022/07/08 00:42:48;;;;;;;2.67;2.42;;;;;;;;;;5071900;28;20108;-85
2022/07/08 00:45:15;;;;;;;3.05;2.40;;;;;;;;;;5071262;28;20029;-83
2022/07/08 00:47:40;;;;;;;2.80;2.35;;;;;;;;;;5067682;28;20090;-85
2022/07/08 00:50:06;;;;;;;4.47;2.28;;;;;;;;;;5070888;28;20032;-84
2022/07/08 00:52:32;;;;;;;3.45;2.47;;;;;;;;;;5069050;28;20116;-85
2022/07/08 00:54:58;;;;;;;3.40;2.40;;;;;;;;;;5072435;28;20076;-84
2022/07/08 00:57:24;;;;;;;2.80;2.50;;;;;;;;;;5073480;28;20032;-83
2022/07/08 00:59:50;;;;;;;3.17;2.40;;;;;;;;;;5073509;28;20527;-83
2022/07/08 01:02:15;;;;;;;2.40;2.20;;;;;;;;;;5072187;28;20155;-85
2022/07/08 01:04:41;;;;;;;3.75;2.17;;;;;;;;;;5075167;28;20024;-84
2022/07/08 01:07:06;;;;;;;2.50;2.15;;;;;;;;;;5074522;28;20111;-85
2022/07/08 01:09:32;;;;;;;2.88;2.20;;;;;;;;;;5073854;28;20024;-85
2022/07/08 01:11:59;;;;;;;3.47;2.20;;;;;;;;;;5073693;28;20074;-86
2022/07/08 01:14:30;;;;;;;2.72;2.20;;;;;;;;;;5073577;28;20483;-85
2022/07/08 01:16:56;;;;;;;2.35;1.98;;;;;;;;;;5070014;28;20027;-85
2022/07/08 01:19:21;;;;;;;4.25;2.30;;;;;;;;;;5073200;28;20029;-84
2022/07/08 01:21:47;;;;;;;4.07;2.63;;;;;;;;;;5072859;28;20032;-84
2022/07/08 01:24:12;;;;;;;2.83;2.17;;;;;;;;;;5073012;28;20024;-85
2022/07/08 01:26:38;;;;;;;2.80;2.28;;;;;;;;;;5072071;28;20028;-84
2022/07/08 01:29:03;;;;;;;3.00;2.20;;;;;;;;;;5072169;28;20035;-83
2022/07/08 01:31:29;;;;;;;2.90;2.42;;;;;;;;;;5071143;28;20468;-84
2022/07/08 01:33:54;;;;;;;2.25;2.03;;;;;;;;;;5074423;28;20025;-84
2022/07/08 01:36:20;;;;;;;3.53;2.28;;;;;;;;;;5074364;28;20032;-85
2022/07/08 01:38:45;;;;;;;2.35;2.15;;;;;;;;;;5074415;28;20035;-87
2022/07/08 01:41:11;;;;;;;2.83;2.22;;;;;;;;;;5073336;28;20025;-83
2022/07/08 01:43:36;;;;;;;2.30;2.10;;;;;;;;;;5071561;28;20627;-85
2022/07/08 01:46:01;;;;;;;3.20;2.13;;;;;;;;;;5068469;28;20029;-85
2022/07/08 01:48:27;;;;;;;2.72;1.90;;;;;;;;;;5071553;28;20059;-83
2022/07/08 01:50:53;;;;;;;2.47;2.20;;;;;;;;;;5074445;28;20032;-84
2022/07/08 01:53:18;;;;;;;2.50;2.30;;;;;;;;;;5074322;28;20082;-87
2022/07/08 01:55:44;;;;;;;4.20;2.17;;;;;;;;;;5073087;28;20078;-86
2022/07/08 01:58:10;;;;;;;2.38;2.10;;;;;;;;;;5072917;28;20390;-85
2022/07/08 02:00:35;;;;;;;2.75;2.10;;;;;;;;;;5072398;28;20029;-85
2022/07/08 02:03:04;;;;;;;2.42;2.00;;;;;;;;;;5072609;28;20021;-84
2022/07/08 02:05:32;;;;;;;2.65;2.20;;;;;;;;;;5072438;28;20366;-84
2022/07/08 02:07:58;;;;;;;2.45;2.15;;;;;;;;;;5072148;28;20056;-84
2022/07/08 02:10:24;;;;;;;3.17;2.22;;;;;;;;;;5073613;28;20048;-84
2022/07/08 02:12:49;;;;;;;2.75;2.30;;;;;;;;;;5072476;28;20350;-86
2022/07/08 02:15:14;;;;;;;3.22;2.67;;;;;;;;;;5073837;28;20048;-84
2022/07/08 02:17:41;;;;;;;2.95;2.20;;;;;;;;;;5074098;28;20032;-85
2022/07/08 02:20:10;;;;;;;2.80;2.30;;;;;;;;;;5073483;28;20040;-84
2022/07/08 02:22:42;;;;;;;2.67;2.47;;;;;;;;;;5074049;28;20020;-84
2022/07/08 02:25:09;;;;;;;2.90;2.60;;;;;;;;;;5071208;28;20029;-86
2022/07/08 02:27:34;;;;;;;2.88;2.35;;;;;;;;;;5073489;28;20025;-84
2022/07/08 02:30:00;;;;;;;2.83;2.53;;;;;;;;;;5073638;28;20089;-84
2022/07/08 02:32:26;;;;;;;2.85;2.55;;;;;;;;;;5073428;28;20117;-82
2022/07/08 02:34:51;;;;;;;2.33;2.05;;;;;;;;;;5073415;28;20150;-84
2022/07/08 02:37:17;;;;;;;7.25;3.83;;;;;;;;;;5073313;28;20150;-85
2022/07/08 02:39:42;;;;;;;2.55;2.35;;;;;;;;;;5073606;28;20028;-85
2022/07/08 02:42:11;;;;;;;3.17;2.85;;;;;;;;;;5073076;28;20024;-84
2022/07/08 02:44:37;;;;;;;3.08;2.78;;;;;;;;;;5073204;28;20036;-84
2022/07/08 02:47:05;;;;;;;4.45;2.72;;;;;;;;;;5073409;28;20025;-86
2022/07/08 02:49:31;;;;;;;3.53;2.58;;;;;;;;;;5072015;28;20387;-85
2022/07/08 02:51:56;;;;;;;3.42;2.30;;;;;;;;;;5073254;28;20107;-84
2022/07/08 02:54:22;;;;;;;4.80;2.40;;;;;;;;;;5073204;28;20037;-84
2022/07/08 02:56:47;;;;;;;3.25;2.53;;;;;;;;;;5071684;28;20033;-85
2022/07/08 02:59:12;;;;;;;4.75;2.50;;;;;;;;;;5071742;28;20052;-85
2022/07/08 03:01:38;;;;;;;4.30;2.65;;;;;;;;;;5072926;28;20062;-86
2022/07/08 03:04:04;;;;;;;3.70;2.88;;;;;;;;;;5072576;28;20082;-84
2022/07/08 03:06:29;;;;;;;3.40;2.75;;;;;;;;;;5072178;28;20027;-83
2022/07/08 03:08:54;;;;;;;3.10;2.65;;;;;;;;;;5073248;28;20037;-85
2022/07/08 03:11:20;;;;;;;3.28;2.83;;;;;;;;;;5073200;28;20032;-84
2022/07/08 03:13:45;;;;;;;2.78;2.28;;;;;;;;;;5071237;28;20023;-84
2022/07/08 03:16:11;;;;;;;3.20;2.30;;;;;;;;;;5072811;28;20023;-83
2022/07/08 03:18:36;;;;;;;2.92;2.60;;;;;;;;;;5068846;28;20028;-85
2022/07/08 03:21:04;;;;;;;3.78;2.50;;;;;;;;;;5073071;28;20107;-84
2022/07/08 03:23:31;;;;;;;2.58;2.25;;;;;;;;;;5072314;28;20357;-84
2022/07/08 03:25:56;;;;;;;4.35;2.70;;;;;;;;;;5072290;28;20048;-85
2022/07/08 03:28:22;;;;;;;4.07;2.70;;;;;;;;;;5069146;28;20062;-84
2022/07/08 03:30:47;;;;;;;2.92;2.53;;;;;;;;;;5071611;28;20535;-85
2022/07/08 03:33:13;;;;;;;4.38;2.60;;;;;;;;;;5070967;28;20119;-85
2022/07/08 03:35:38;;;;;;;2.95;2.40;;;;;;;;;;5070019;28;20028;-83
2022/07/08 03:38:04;;;;;;;3.10;2.40;;;;;;;;;;5069646;28;20474;-84
2022/07/08 03:43:13;;;;;;;2.90;2.30;;;;;;;;;;5070575;28;20133;-83
2022/07/08 03:45:39;;;;;;;3.63;2.70;;;;;;;;;;5071711;28;20032;-85
2022/07/08 03:48:04;;;;;;;6.43;2.42;;;;;;;;;;5070828;28;20036;-84
2022/07/08 03:50:30;;;;;;;3.45;2.63;;;;;;;;;;5071120;28;20021;-83
2022/07/08 03:52:56;;;;;;;2.53;2.22;;;;;;;;;;5069267;28;20021;-84
2022/07/08 03:55:25;;;;;;;4.40;2.38;;;;;;;;;;5071857;28;20059;-83
2022/07/08 03:57:51;;;;;;;3.78;2.70;;;;;;;;;;5068905;28;20472;-83
2022/07/08 04:00:16;;;;;;;3.40;2.80;;;;;;;;;;5087617;28;20047;-83
2022/07/08 04:02:42;;;;;;;4.15;3.38;;;;;;;;;;5071983;28;20465;-84
2022/07/08 04:05:08;;;;;;;3.63;3.17;;;;;;;;;;5071747;28;20039;-84
2022/07/08 04:07:34;;;;;;;5.90;3.90;;;;;;;;;;5071729;28;20454;-84
2022/07/08 04:09:59;;;;;;;5.65;4.30;;;;;;;;;;5070364;28;20036;-85
2022/07/08 04:12:25;;;;;;;3.67;3.38;;;;;;;;;;5070364;28;20028;-85
2022/07/08 04:14:50;;;;;;;3.30;3.00;;;;;;;;;;5071817;28;20020;-83
2022/07/08 04:17:16;;;;;;;4.57;3.60;;;;;;;;;;5070644;28;20039;-83
2022/07/08 04:19:41;;;;;;;3.25;2.95;;;;;;;;;;5069576;28;20030;-83
2022/07/08 04:22:07;;;;;;;4.28;2.78;;;;;;;;;;5071260;28;20028;-82
2022/07/08 04:24:32;;;;;;;3.47;2.60;;;;;;;;;;5071513;28;20020;-83
2022/07/08 04:26:58;;;;;;;4.65;3.10;;;;;;;;;;5071231;28;20027;-83
2022/07/08 04:29:23;;;;;;;2.90;2.60;;;;;;;;;;5069031;28;20408;-84
2022/07/08 04:31:49;;;;;;;3.80;3.03;;;;;;;;;;5070051;28;20078;-86
2022/07/08 04:34:15;;;;;;;6.15;3.30;;;;;;;;;;5069868;28;20059;-85
2022/07/08 04:36:41;;;;;;;4.00;3.60;;;;;;;;;;5070079;28;20373;-84
2022/07/08 04:39:06;;;;;;;6.00;4.10;;;;;;;;;;5071273;28;20021;-84
2022/07/08 04:41:31;;;;;;;4.35;3.78;;;;;;;;;;5069878;28;20460;-84
2022/07/08 04:43:57;;;;;;;4.72;3.53;;;;;;;;;;5069570;28;20024;-84
2022/07/08 04:46:22;;;;;;;5.53;4.22;;;;;;;;;;5071340;28;20028;-84
2022/07/08 04:48:48;;;;;;;4.68;3.58;;;;;;;;;;5070839;28;20020;-84
2022/07/08 04:51:13;;;;;;;5.25;3.72;;;;;;;;;;5070648;28;20032;-84
2022/07/08 04:53:39;;;;;;;4.45;3.60;;;;;;;;;;5069820;28;20060;-84
2022/07/08 04:56:05;;;;;;;4.28;3.88;;;;;;;;;;5068763;28;20036;-84
2022/07/08 04:58:30;;;;;;;4.97;4.47;;;;;;;;;;5069477;28;20020;-83
2022/07/08 05:00:56;;;;;;;5.05;4.55;;;;;;;;;;5069725;28;20108;-84
2022/07/08 05:03:21;;;;;;;4.70;4.20;;;;;;;;;;5071305;28;20111;-84
2022/07/08 05:05:47;;;;;;;6.40;5.00;;;;;;;;;;5071030;28;20036;-82
2022/07/08 05:08:12;;;;;;;4.97;4.57;;;;;;;;;;5069129;28;20030;-83
2022/07/08 05:10:37;;;;;;;7.22;5.35;;;;;;;;;;5070049;28;20025;-83
2022/07/08 05:13:05;;;;;;;5.78;5.18;;;;;;;;;;5071032;28;20028;-83
2022/07/08 05:15:30;;;;;;;5.72;5.13;;;;;;;;;;5069145;28;20032;-82
2022/07/08 05:17:56;;;;;;;5.50;4.90;;;;;;;;;;5068071;28;20035;-83
2022/07/08 05:20:22;;;;;;;9.27;4.65;;;;;;;;;;5068246;28;20029;-83
2022/07/08 05:22:47;;;;;;;5.93;5.05;;;;;;;;;;5069872;28;20028;-82
2022/07/08 05:25:13;;;;;;;4.85;4.35;;;;;;;;;;5067188;28;20060;-83
2022/07/08 05:27:39;;;;;;;5.82;4.40;;;;;;;;;;5069761;28;20024;-84
2022/07/08 05:30:06;;;;;;;5.10;4.60;;;;;;;;;;5069919;28;20077;-82
2022/07/08 05:32:32;;;;;;;6.25;4.07;;;;;;;;;;5066838;28;20056;-82
2022/07/08 05:34:58;;;;;;;4.32;3.92;;;;;;;;;;5070911;28;20467;-84
2022/07/08 05:37:23;;;;;;;6.35;4.78;;;;;;;;;;5067790;28;20028;-82
2022/07/08 05:39:49;;;;;;;5.50;4.50;;;;;;;;;;5066451;28;20388;-83
2022/07/08 05:42:14;;;;;;;5.10;4.60;;;;;;;;;;5065899;28;20016;-82
2022/07/08 05:44:40;;;;;;;5.95;5.10;;;;;;;;;;5070106;28;20028;-83
2022/07/08 05:47:09;;;;;;;6.25;5.25;;;;;;;;;;5071243;28;20099;-82
2022/07/08 05:49:36;;;;;;;7.32;6.43;;;;;;;;;;5071426;28;20043;-82
2022/07/08 05:52:06;;;;;;;9.13;6.78;;;;;;;;;;5071095;28;20059;-83
2022/07/08 05:54:32;;;;;;;10.27;6.95;;;;;;;;;;5073065;28;20509;-83
2022/07/08 05:56:58;;;;;;;6.40;5.70;;;;;;;;;;5068233;28;20432;-84
2022/07/08 05:59:23;;;;;;;9.50;5.72;;;;;;;;;;5068828;28;20028;-83
2022/07/08 06:01:49;;;;;;;6.72;5.60;;;;;;;;;;5072490;28;20104;-81
2022/07/08 06:04:14;;;;;;;8.65;5.78;;;;;;;;;;5071140;28;20479;-82
2022/07/08 06:06:40;;;;;;;8.23;5.43;;;;;;;;;;5069902;28;20044;-82
2022/07/08 06:09:05;;;;;;;6.55;5.85;;;;;;;;;;5071428;28;20032;-82
2022/07/08 06:11:31;;;;;;;6.88;5.60;;;;;;;;;;5072669;28;20028;-82
2022/07/08 06:13:57;;;;;;;8.52;5.70;;;;;;;;;;5071686;28;20806;-83
2022/07/08 06:16:22;;;;;;;6.47;5.78;;;;;;;;;;5070480;28;20028;-83
2022/07/08 06:18:48;;;;;;;6.55;5.85;;;;;;;;;;5070321;28;20468;-84
2022/07/08 06:21:13;;;;;;;7.53;5.60;;;;;;;;;;5072101;28;20036;-85
2022/07/08 06:23:39;;;;;;;6.60;5.53;;;;;;;;;;5066669;28;20025;-82
2022/07/08 06:26:04;;;;;;;5.65;5.15;;;;;;;;;;5067592;28;20081;-83
2022/07/08 06:28:30;;;;;;;8.65;5.60;;;;;;;;;;5072604;28;20096;-83
2022/07/08 06:30:56;;;;;;;8.50;6.60;;;;;;;;;;5064963;28;20043;-84
2022/07/08 06:33:21;;;;;;;7.43;6.45;;;;;;;;;;5069568;28;20097;-83
2022/07/08 06:35:47;;;;;;;8.60;6.68;;;;;;;;;;5065944;28;20066;-85
2022/07/08 06:38:12;;;;;;;8.60;7.00;;;;;;;;;;5068399;28;20032;-82
2022/07/08 06:40:38;;;;;;;8.85;6.50;;;;;;;;;;5070440;28;20028;-82
2022/07/08 06:43:03;;;;;;;8.07;6.50;;;;;;;;;;5072988;28;20028;-83
2022/07/08 06:45:32;;;;;;;7.53;6.72;;;;;;;;;;5072279;28;20036;-84
2022/07/08 06:48:00;;;;;;;7.57;6.78;;;;;;;;;;5070638;28;20035;-84
2022/07/08 06:50:26;;;;;;;8.57;6.43;;;;;;;;;;5072048;28;20024;-84
2022/07/08 06:52:52;;;;;;;9.38;6.50;;;;;;;;;;5067661;28;20374;-84
2022/07/08 06:55:17;;;;;;;9.88;6.03;;;;;;;;;;5071478;28;20064;-85
2022/07/08 06:57:43;;;;;;;10.38;5.03;;;;;;;;;;5072723;28;20032;-83
2022/07/08 07:00:08;;;;;;;8.20;5.75;;;;;;;;;;5068738;28;20036;-83
2022/07/08 07:02:34;;;;;;;6.22;4.70;;;;;;;;;;5072325;28;20100;-83
2022/07/08 07:05:00;;;;;;;7.70;5.15;;;;;;;;;;5068381;28;20032;-83
2022/07/08 07:07:27;;;;;;;8.40;5.15;;;;;;;;;;5072593;28;20016;-84
2022/07/08 07:09:53;;;;;;;4.70;3.95;;;;;;;;;;5069986;28;20578;-82
2022/07/08 07:12:18;;;;;;;5.15;4.63;;;;;;;;;;5071910;28;20024;-84
2022/07/08 07:14:44;;;;;;;6.07;4.03;;;;;;;;;;5074182;28;20032;-85
2022/07/08 07:17:09;;;;;;;4.13;3.58;;;;;;;;;;5072857;28;20131;-83
2022/07/08 07:19:35;;;;;;;5.47;3.40;;;;;;;;;;5070600;28;20140;-82
2022/07/08 07:22:00;;;;;;;5.15;4.20;;;;;;;;;;5070132;28;20048;-84
2022/07/08 07:24:26;;;;;;;4.70;3.70;;;;;;;;;;5070466;28;20035;-82
2022/07/08 07:26:51;;;;;;;3.60;3.15;;;;;;;;;;5069679;28;20084;-83
2022/07/08 07:29:16;;;;;;;3.38;2.90;;;;;;;;;;5071273;28;20036;-83
2022/07/08 07:31:42;;;;;;;3.33;2.70;;;;;;;;;;5065418;28;20059;-83
2022/07/08 07:34:08;;;;;;;3.35;2.85;;;;;;;;;;5069606;28;20404;-82
2022/07/08 07:36:33;;;;;;;3.15;2.60;;;;;;;;;;5070482;28;20028;-83
2022/07/08 07:38:59;;;;;;;5.20;4.15;;;;;;;;;;5069274;28;20036;-83
2022/07/08 07:41:24;;;;;;;3.22;2.47;;;;;;;;;;5069667;28;20151;-83
2022/07/08 07:43:50;;;;;;;5.30;3.10;;;;;;;;;;5068176;28;20051;-83
2022/07/08 07:46:16;;;;;;;3.47;2.58;;;;;;;;;;5070637;28;20037;-83
2022/07/08 07:48:41;;;;;;;3.22;2.40;;;;;;;;;;5068855;28;20055;-83
2022/07/08 07:51:07;;;;;;;3.20;2.22;;;;;;;;;;5069267;28;20089;-83
2022/07/08 07:53:33;;;;;;;6.65;3.40;;;;;;;;;;5069279;28;20547;-83
2022/07/08 07:55:58;;;;;;;4.07;2.70;;;;;;;;;;5067332;28;20036;-85
2022/07/08 07:58:24;;;;;;;4.22;2.90;;;;;;;;;;5071370;28;20024;-83
2022/07/08 08:00:51;;;;;;;3.85;2.60;;;;;;;;;;5071838;28;20070;-83
2022/07/08 08:03:17;;;;;;;6.47;2.60;;;;;;;;;;5069137;28;20055;-82
2022/07/08 08:05:42;;;;;;;5.95;3.35;;;;;;;;;;5069228;28;20052;-83
2022/07/08 08:08:09;;;;;;;4.95;3.35;;;;;;;;;;5066140;28;20032;-84
2022/07/08 08:10:35;;;;;;;3.80;2.67;;;;;;;;;;5067195;28;20020;-83
2022/07/08 08:13:00;;;;;;;4.93;3.10;;;;;;;;;;5068933;28;20042;-83
2022/07/08 08:15:29;;;;;;;7.32;3.00;;;;;;;;;;5070229;28;20052;-83
2022/07/08 08:17:56;;;;;;;4.13;2.47;;;;;;;;;;5069316;28;20123;-83
2022/07/08 08:20:24;;;;;;;3.03;2.35;;;;;;;;;;5066187;28;20025;-82
2022/07/08 08:22:49;;;;;;;3.25;2.47;;;;;;;;;;5067301;28;21003;-83
2022/07/08 08:25:15;;;;;;;4.25;2.28;;;;;;;;;;5065541;28;20081;-82
2022/07/08 08:27:40;;;;;;;3.33;2.40;;;;;;;;;;5067403;28;20028;-84
2022/07/08 08:30:07;;;;;;;2.03;1.83;;;;;;;;;;5071532;28;21936;-85
2022/07/08 08:32:33;;;;;;;2.45;1.92;;;;;;;;;;5070838;28;20039;-83
2022/07/08 08:34:58;;;;;;;4.28;2.60;;;;;;;;;;5068420;28;20033;-84
2022/07/08 08:37:25;;;;;;;3.20;2.55;;;;;;;;;;5069847;28;20032;-81
2022/07/08 08:39:51;;;;;;;3.58;2.40;;;;;;;;;;5068920;28;20472;-85
2022/07/08 08:42:19;;;;;;;3.22;2.40;;;;;;;;;;5068451;28;20021;-87
2022/07/08 08:44:49;;;;;;;3.30;2.53;;;;;;;;;;5069073;28;20024;-84
2022/07/08 08:47:24;;;;;;;3.83;3.05;;;;;;;;;;5072341;28;20021;-83
2022/07/08 08:49:49;;;;;;;2.88;2.58;;;;;;;;;;5074301;28;20082;-84
2022/07/08 08:52:15;;;;;;;4.07;2.60;;;;;;;;;;5072155;28;20025;-84
2022/07/08 08:54:42;;;;;;;3.67;2.47;;;;;;;;;;5069738;28;20059;-84
2022/07/08 08:57:07;;;;;;;6.18;2.60;;;;;;;;;;5072191;28;20024;-83
2022/07/08 08:59:34;;;;;;;2.70;2.20;;;;;;;;;;5071896;28;20522;-84
2022/07/08 09:02:07;;;;;;;2.85;2.53;;;;;;;;;;5068119;28;20031;-84
2022/07/08 09:04:33;;;;;;;3.72;2.67;;;;;;;;;;5071177;28;20070;-84
2022/07/08 09:07:00;;;;;;;4.78;2.63;;;;;;;;;;5071127;28;20036;-84
2022/07/08 09:09:26;;;;;;;3.15;2.20;;;;;;;;;;5071078;28;20108;-84
2022/07/08 09:11:52;;;;;;;5.07;2.40;;;;;;;;;;5068586;28;20477;-83
2022/07/08 09:14:32;;;;;;;4.18;2.40;;;;;;;;;;5073216;28;20031;-84
2022/07/08 09:17:21;;;;;;;2.85;2.00;;;;;;;;;;5075836;28;20488;-84
2022/07/08 09:19:48;;;;;;;4.38;2.47;;;;;;;;;;5076186;28;20052;-84
2022/07/08 09:22:14;;;;;;;3.33;2.30;;;;;;;;;;5075884;28;20043;-85
2022/07/08 09:24:40;;;;;;;4.20;2.20;;;;;;;;;;5077641;28;20032;-86
2022/07/08 09:27:07;;;;;;;5.10;2.50;;;;;;;;;;5074549;28;20025;-84
2022/07/08 09:29:34;;;;;;;3.58;2.50;;;;;;;;;;5077404;28;20028;-87
2022/07/08 09:32:13;;;;;;;3.72;2.35;;;;;;;;;;5075602;28;20463;-83
2022/07/08 09:34:38;;;;;;;2.87;2.47;;;;;;;;;;5076268;28;20035;-83
2022/07/08 09:37:15;;;;;;;5.10;2.38;;;;;;;;;;5076335;28;20729;-87
2022/07/08 09:39:42;;;;;;;2.92;2.00;;;;;;;;;;5075625;28;20357;-83
2022/07/08 09:42:08;;;;;;;3.40;2.30;;;;;;;;;;5076569;28;20503;-81
2022/07/08 09:44:35;;;;;;;4.18;1.67;;;;;;;;;;5079893;28;20024;-83
2022/07/08 09:47:08;;;;;;;2.33;1.90;;;;;;;;;;5072433;28;20033;-82
2022/07/08 09:49:34;;;;;;;2.08;1.50;;;;;;;;;;5078043;28;20468;-83
2022/07/08 09:52:00;;;;;;;1.50;1.30;;;;;;;;;;5077049;28;20063;-82
2022/07/08 09:54:28;;;;;;;3.38;1.90;;;;;;;;;;5073674;28;20044;-84
2022/07/08 09:57:01;;;;;;;2.85;1.80;;;;;;;;;;5069421;28;20047;-84
2022/07/08 09:59:31;;;;;;;2.88;1.88;;;;;;;;;;5073617;28;20031;-83
2022/07/08 10:01:58;;;;;;;3.63;1.90;;;;;;;;;;5072362;28;20028;-83
2022/07/08 10:04:27;;;;;;;3.92;2.00;;;;;;;;;;5072243;28;20033;-82
2022/07/08 10:06:55;;;;;;;;;;;;;;;;;;5068890;28;20037;-81
2022/07/08 10:09:22;;;;;;;4.68;3.30;;;;;;;;;;5071289;28;19934;-83
2022/07/08 10:11:48;;;;;;;3.75;2.15;;;;;;;;;;5068183;28;20051;-83
2022/07/08 10:14:15;;;;;;;2.17;1.83;;;;;;;;;;5074420;28;20055;-83
2022/07/08 10:16:42;;;;;;;2.63;1.90;;;;;;;;;;5069764;28;20094;-83
2022/07/08 10:19:13;;;;;;;2.15;1.90;;;;;;;;;;5073504;28;20112;-83
2022/07/08 10:21:43;;;;;;;5.10;1.88;;;;;;;;;;5069773;28;20032;-81
2022/07/08 10:24:17;;;;;;;2.75;1.90;;;;;;;;;;5070891;28;20098;-82
2022/07/08 10:26:44;;;;;;;3.95;2.40;;;;;;;;;;5070946;28;20105;-84
2022/07/08 10:29:13;;;;;;;2.40;2.10;;;;;;;;;;5071345;28;20086;-81
2022/07/08 10:31:44;;;;;;;2.78;1.92;;;;;;;;;;5069418;28;20063;-82
2022/07/08 10:34:12;;;;;;;3.15;1.95;;;;;;;;;;5071238;28;20058;-82
2022/07/08 10:36:50;;;;;;;3.00;1.83;;;;;;;;;;5071436;28;20036;-83
2022/07/08 10:39:37;;;;;;;2.15;1.58;;;;;;;;;;5067145;28;20029;-84
2022/07/08 10:42:06;;;;;;;3.05;1.90;;;;;;;;;;5068090;28;20021;-83
2022/07/08 10:44:44;;;;;;;2.17;1.90;;;;;;;;;;5071527;28;20107;-82
2022/07/08 10:47:16;;;;;;;2.53;1.90;;;;;;;;;;5070703;28;20044;-83
2022/07/08 10:49:47;;;;;;;3.67;2.13;;;;;;;;;;5071976;28;20418;-82
2022/07/08 10:52:14;;;;;;;1.98;1.77;;;;;;;;;;5072408;28;20055;-81
2022/07/08 10:54:42;;;;;;;2.75;2.00;;;;;;;;;;5072773;28;20041;-82
2022/07/08 10:57:13;;;;;;;2.15;1.95;;;;;;;;;;5072736;28;20064;-83
2022/07/08 10:59:39;;;;;;;2.10;1.90;;;;;;;;;;5072603;28;20035;-83
2022/07/08 11:02:12;;;;;;;1.92;1.63;;;;;;;;;;5072777;28;20029;-82
2022/07/08 11:04:37;;;;;;;2.95;1.80;;;;;;;;;;5072401;28;20016;-82
2022/07/08 11:07:15;;;;;;;2.00;1.80;;;;;;;;;;5072511;28;20030;-83
2022/07/08 11:09:41;;;;;;;3.65;1.73;;;;;;;;;;5072568;28;20546;-83
2022/07/08 11:12:11;;;;;;;3.35;2.22;;;;;;;;;;5072440;28;20031;-82
2022/07/08 11:14:36;;;;;;;3.40;1.90;;;;;;;;;;5069840;28;20050;-85
2022/07/08 11:17:02;;;;;;;2.08;1.67;;;;;;;;;;5066700;28;20037;-85
2022/07/08 11:19:33;;;;;;;2.22;1.85;;;;;;;;;;5072257;28;20082;-84
2022/07/08 11:22:02;;;;;;;1.98;1.75;;;;;;;;;;5072179;28;20035;-84
2022/07/08 11:24:28;;;;;;;2.63;1.42;;;;;;;;;;5071978;28;20078;-83
2022/07/08 11:26:54;;;;;;;2.55;1.52;;;;;;;;;;5071951;28;20036;-84
2022/07/08 11:29:24;;;;;;;2.28;1.73;;;;;;;;;;5071992;28;20024;-85
2022/07/08 11:31:57;;;;;;;1.70;1.60;;;;;;;;;;5069786;28;20035;-84
2022/07/08 11:34:24;;;;;;;2.15;1.60;;;;;;;;;;5067518;28;20031;-83
2022/07/08 11:37:08;;;;;;;1.90;1.70;;;;;;;;;;5070366;28;20046;-83
2022/07/08 11:39:34;;;;;;;2.03;1.60;;;;;;;;;;5068839;28;20464;-82
2022/07/08 11:42:00;;;;;;;2.47;1.70;;;;;;;;;;5071539;28;20652;-82
2022/07/08 11:44:26;;;;;;;3.25;1.77;;;;;;;;;;5071797;28;20059;-82
2022/07/08 11:46:53;;;;;;;2.42;1.48;;;;;;;;;;5071478;28;20024;-83
2022/07/08 11:49:21;;;;;;;1.95;1.40;;;;;;;;;;5070212;28;20060;-81
2022/07/08 11:51:51;;;;;;;8.43;2.15;;;;;;;;;;5067393;28;20485;-80
2022/07/08 11:54:20;;;;;;;6.28;2.28;;;;;;;;;;5071247;28;20397;-84
2022/07/08 11:56:46;;;;;;;7.20;2.33;;;;;;;;;;5071141;28;20073;-82
2022/07/08 11:59:18;;;;;;;2.92;1.92;;;;;;;;;;5070997;28;20060;-84
2022/07/08 12:01:44;;;;;;;1.92;1.65;;;;;;;;;;5071201;28;20488;-84
2022/07/08 12:04:09;;;;;;;5.15;1.75;;;;;;;;;;5069974;28;20021;-83
2022/07/08 12:06:44;;;;;;;2.28;1.73;;;;;;;;;;5071168;28;20394;-84
2022/07/08 12:09:10;;;;;;;2.25;1.85;;;;;;;;;;5071461;28;20035;-83
2022/07/08 12:11:40;;;;;;;2.17;1.80;;;;;;;;;;5071307;28;20028;-85
2022/07/08 12:14:08;;;;;;;3.25;1.60;;;;;;;;;;5070108;28;20107;-84
2022/07/08 12:16:39;;;;;;;2.40;1.60;;;;;;;;;;5069953;28;20028;-85
2022/07/08 12:19:05;;;;;;;3.50;1.60;;;;;;;;;;5067835;28;20475;-83
2022/07/08 12:21:30;;;;;;;3.42;1.90;;;;;;;;;;5067441;28;20037;-84
2022/07/08 12:24:04;;;;;;;4.07;1.70;;;;;;;;;;5068619;28;20039;-85
2022/07/08 12:26:29;;;;;;;3.13;2.00;;;;;;;;;;5068820;28;20082;-84
2022/07/08 12:28:56;;;;;;;1.80;1.50;;;;;;;;;;5068332;28;20020;-85
2022/07/08 12:31:34;;;;;;;2.25;1.80;;;;;;;;;;5071048;28;20032;-84
2022/07/08 12:34:03;;;;;;;3.83;2.00;;;;;;;;;;5066178;28;20381;-85
2022/07/08 12:36:29;;;;;;;2.00;1.80;;;;;;;;;;5067456;28;20479;-84
2022/07/08 12:38:54;;;;;;;2.33;1.80;;;;;;;;;;5067875;28;20032;-85
2022/07/08 12:41:21;;;;;;;7.32;2.10;;;;;;;;;;5070247;28;20050;-84
2022/07/08 12:43:46;;;;;;;3.13;2.20;;;;;;;;;;5070362;28;20030;-84
2022/07/08 12:46:12;;;;;;;2.63;2.20;;;;;;;;;;5071413;28;20024;-85
2022/07/08 12:48:37;;;;;;;2.67;2.30;;;;;;;;;;5069147;28;20095;-87
2022/07/08 12:51:03;;;;;;;2.83;2.40;;;;;;;;;;5072818;28;20364;-86
2022/07/08 12:53:29;;;;;;;3.42;2.15;;;;;;;;;;5071838;28;20048;-84
2022/07/08 12:55:54;;;;;;;3.15;2.58;;;;;;;;;;5069810;28;20100;-85
2022/07/08 12:58:24;;;;;;;3.75;2.80;;;;;;;;;;5074889;28;20035;-84
2022/07/08 13:00:50;;;;;;;3.90;2.80;;;;;;;;;;5071649;28;20039;-84
2022/07/08 13:03:16;;;;;;;3.08;2.78;;;;;;;;;;5070577;28;20086;-83
2022/07/08 13:05:42;;;;;;;3.00;2.63;;;;;;;;;;5065789;28;20028;-83
2022/07/08 13:08:08;;;;;;;2.63;2.28;;;;;;;;;;5069998;28;20251;-84
2022/07/08 13:10:39;;;;;;;3.20;2.78;;;;;;;;;;5070654;28;20035;-84
2022/07/08 13:13:08;;;;;;;2.83;2.50;;;;;;;;;;5072411;28;20023;-85
2022/07/08 13:15:33;;;;;;;2.60;2.40;;;;;;;;;;5070907;28;20028;-84
2022/07/08 13:17:59;;;;;;;4.63;2.67;;;;;;;;;;5071258;28;20115;-84
2022/07/08 13:20:25;;;;;;;4.00;2.42;;;;;;;;;;5074666;28;20380;-84
2022/07/08 13:22:50;;;;;;;3.00;2.70;;;;;;;;;;5071446;28;20023;-84
2022/07/08 13:25:16;;;;;;;5.03;2.67;;;;;;;;;;5070741;28;20028;-85
2022/07/08 13:27:44;;;;;;;3.97;2.83;;;;;;;;;;5074149;28;20032;-83
2022/07/08 13:30:13;;;;;;;3.40;3.10;;;;;;;;;;5072836;28;20028;-84
2022/07/08 13:32:39;;;;;;;3.60;2.63;;;;;;;;;;5074383;28;20028;-83
2022/07/08 13:35:05;;;;;;;4.53;3.20;;;;;;;;;;5071996;28;20031;-84
2022/07/08 13:37:30;;;;;;;3.20;2.90;;;;;;;;;;5071619;28;20024;-83
2022/07/08 13:39:56;;;;;;;3.78;3.17;;;;;;;;;;5073431;28;20122;-87
2022/07/08 13:42:21;;;;;;;3.30;2.97;;;;;;;;;;5069433;28;20044;-83
2022/07/08 13:44:47;;;;;;;3.30;2.90;;;;;;;;;;5072473;28;20536;-85
2022/07/08 13:47:13;;;;;;;4.05;2.92;;;;;;;;;;5072718;28;20036;-85
2022/07/08 13:49:38;;;;;;;3.30;3.00;;;;;;;;;;5072833;28;20024;-84
2022/07/08 13:52:04;;;;;;;4.63;3.15;;;;;;;;;;5073784;28;20048;-83
2022/07/08 13:54:29;;;;;;;3.95;3.10;;;;;;;;;;5071757;28;20048;-86
2022/07/08 13:56:55;;;;;;;3.38;3.08;;;;;;;;;;5071486;28;20361;-85
2022/07/08 13:59:20;;;;;;;4.15;3.20;;;;;;;;;;5070116;28;20111;-86
2022/07/08 14:01:46;;;;;;;3.10;2.67;;;;;;;;;;5069744;28;20025;-83
2022/07/08 14:04:11;;;;;;;4.35;2.85;;;;;;;;;;5070811;28;20017;-83
2022/07/08 14:06:37;;;;;;;2.38;2.17;;;;;;;;;;5068096;28;20035;-83
2022/07/08 14:09:02;;;;;;;3.72;2.50;;;;;;;;;;5068476;28;20488;-84
2022/07/08 14:11:28;;;;;;;4.00;2.40;;;;;;;;;;5071466;28;20110;-84
2022/07/08 14:13:54;;;;;;;2.80;2.30;;;;;;;;;;5071682;28;20021;-84
2022/07/08 14:16:20;;;;;;;2.38;2.10;;;;;;;;;;5072008;28;20025;-82
2022/07/08 14:18:46;;;;;;;2.25;2.05;;;;;;;;;;5072049;28;20094;-85
2022/07/08 14:21:11;;;;;;;2.35;2.15;;;;;;;;;;5070884;28;20477;-83
2022/07/08 14:23:36;;;;;;;3.25;2.08;;;;;;;;;;5072393;28;20028;-84
2022/07/08 14:26:02;;;;;;;2.55;2.00;;;;;;;;;;5068315;28;20028;-85
2022/07/08 14:28:27;;;;;;;2.85;2.03;;;;;;;;;;5069738;28;20039;-85
2022/07/08 14:30:53;;;;;;;2.40;2.20;;;;;;;;;;5070717;28;20074;-83
2022/07/08 14:33:18;;;;;;;2.45;2.10;;;;;;;;;;5070224;28;20074;-86
2022/07/08 14:35:44;;;;;;;2.20;2.00;;;;;;;;;;5071573;28;20373;-85
2022/07/08 14:38:09;;;;;;;2.00;1.80;;;;;;;;;;5072606;28;20104;-87
2022/07/08 14:40:37;;;;;;;2.28;2.08;;;;;;;;;;5067552;28;20112;-85
2022/07/08 14:43:04;;;;;;;2.60;2.20;;;;;;;;;;5070779;28;20103;-86